createdAt,value
2023-04-11T10:07:10.995Z,100605.50
2023-04-11T10:09:42.489Z,100607.97
2023-04-11T10:12:10.792Z,100603.91
2023-04-11T10:14:48.065Z,100603.91
2023-04-11T10:17:22.601Z,100607.16
2023-04-11T10:19:51.884Z,100596.41
2023-04-11T10:22:38.303Z,100592.41
2023-04-11T10:25:23.324Z,100592.78
2023-04-11T10:27:54.574Z,100593.59
2023-04-11T10:30:42.446Z,100597.28
2023-04-11T10:33:26.367Z,100611.28
2023-04-11T10:36:01.229Z,100616.13
2023-04-11T10:38:52.221Z,100624.50
2023-04-11T10:41:26.616Z,100634.09
2023-04-11T10:43:56.427Z,100630.41
2023-04-11T10:46:25.396Z,100633.59
2023-04-11T10:50:04.397Z,100630.41
2023-04-11T10:52:32.681Z,100633.22
2023-04-11T10:55:00.952Z,100633.59
2023-04-11T10:57:33.792Z,100642.38
2023-04-11T11:00:02.284Z,100638.38
2023-04-11T11:02:40.981Z,100630.41
2023-04-11T11:05:22.650Z,100626.47
2023-04-11T11:07:51.310Z,100634.47
2023-04-11T11:10:39.187Z,100641.31
2023-04-11T11:13:10.332Z,100641.78
2023-04-11T11:15:41.463Z,100640.97
2023-04-11T11:18:09.925Z,100649.00
2023-04-11T11:20:38.196Z,100644.19
2023-04-11T11:23:07.326Z,100650.16
2023-04-11T11:25:35.293Z,100644.19
2023-04-11T11:28:05.582Z,100644.56
2023-04-11T11:30:38.080Z,100650.97
2023-04-11T11:33:16.939Z,100645.03
2023-04-11T11:35:58.202Z,100655.84
2023-04-11T11:38:31.876Z,100648.25
2023-04-11T11:41:07.029Z,100653.84
2023-04-11T11:43:50.153Z,100661.09
2023-04-11T11:46:24.002Z,100663.44
2023-04-11T11:51:53.474Z,100665.91
2023-04-11T11:54:23.500Z,100668.69
2023-04-11T11:56:52.002Z,100675.09
2023-04-11T12:02:44.972Z,100673.09
2023-04-11T12:05:13.788Z,100685.13
2023-04-11T12:07:44.037Z,100668.25
2023-04-11T12:10:19.029Z,100669.84
2023-04-11T12:12:53.450Z,100682.69
2023-04-11T12:15:24.105Z,100677.09
2023-04-11T12:17:54.228Z,100684.31
2023-04-11T12:20:37.742Z,100677.91
2023-04-11T12:23:12.581Z,100680.69
2023-04-11T12:25:41.754Z,100689.09
2023-04-11T12:28:09.881Z,100684.66
2023-04-11T12:30:38.542Z,100685.84
2023-04-11T12:33:09.977Z,100678.63
2023-04-11T12:35:44.155Z,100683.50
2023-04-11T12:38:14.998Z,100679.91
2023-04-11T12:40:46.443Z,100683.50
2023-04-11T12:43:14.526Z,100696.31
2023-04-11T12:45:43.833Z,100703.53
2023-04-11T12:48:13.377Z,100727.53
2023-04-11T12:50:41.324Z,100748.75
2023-04-11T12:53:09.775Z,100770.00
2023-04-11T12:55:40.481Z,100781.22
2023-04-11T12:58:09.616Z,100798.00
2023-04-11T13:00:39.831Z,100785.16
2023-04-11T13:03:08.320Z,100806.75
2023-04-11T13:05:38.587Z,100817.16
2023-04-11T13:08:12.327Z,100836.75
2023-04-11T13:10:40.563Z,100837.94
2023-04-11T13:13:17.955Z,100825.13
2023-04-11T13:15:47.754Z,100831.16
2023-04-11T13:18:18.702Z,100825.13
2023-04-11T13:20:48.516Z,100833.03
2023-04-11T13:23:17.484Z,100825.81
2023-04-11T13:25:45.979Z,100823.03
2023-04-11T13:28:14.072Z,100817.78
2023-04-11T13:30:42.516Z,100823.38
2023-04-11T13:33:10.953Z,100820.94
2023-04-11T13:36:00.397Z,100819.34
2023-04-11T13:38:36.984Z,100812.47
2023-04-11T13:41:16.329Z,100827.25
2023-04-11T13:43:51.030Z,100826.44
2023-04-11T13:46:19.935Z,100833.66
2023-04-11T13:48:50.966Z,100852.47
2023-04-11T13:51:20.175Z,100888.94
2023-04-11T13:53:55.477Z,100903.41
2023-04-11T14:04:19.344Z,100868.28
2023-04-11T14:07:13.060Z,100862.69
2023-04-11T14:10:36.621Z,100881.47
2023-04-11T14:13:36.525Z,100861.88
2023-04-11T14:19:40.839Z,100862.69
2023-04-11T14:22:30.033Z,100867.47
2023-04-11T14:25:08.671Z,100859.91
2023-04-11T14:27:40.723Z,100873.88
2023-04-11T14:30:14.340Z,100867.09
2023-04-11T14:35:31.654Z,100872.25
2023-04-11T14:38:20.729Z,100868.28
2023-04-11T14:41:15.244Z,100869.09
2023-04-11T14:44:07.823Z,100858.72
2023-04-11T14:46:57.987Z,100870.88
2023-04-11T14:49:43.349Z,100869.53
2023-04-11T14:52:16.416Z,100868.06
2023-04-11T14:54:52.041Z,100861.75
2023-04-11T14:57:25.824Z,100869.00
2023-04-11T15:00:06.351Z,100870.63
2023-04-11T15:02:47.768Z,100869.44
2023-04-11T15:09:24.008Z,100874.59
2023-04-11T15:20:11.431Z,100844.97
2023-04-11T15:38:13.905Z,100863.41
2023-04-11T15:40:44.178Z,100851.03
2023-04-11T15:43:17.561Z,100862.22
2023-04-11T15:45:52.372Z,100858.25
2023-04-11T15:48:21.099Z,100861.03
2023-04-11T15:50:51.012Z,100859.44
2023-04-11T15:53:20.944Z,100867.81
2023-04-11T15:55:57.185Z,100888.59
2023-04-11T15:58:30.529Z,100889.31
2023-04-11T16:01:02.740Z,100877.94
2023-04-11T16:03:32.760Z,100863.78
2023-04-11T16:06:01.881Z,100858.97
2023-04-11T16:08:35.866Z,100867.09
2023-04-11T16:11:07.634Z,100864.03
2023-04-11T16:13:41.967Z,100865.75
2023-04-11T16:16:10.445Z,100857.81
2023-04-11T16:18:57.484Z,100859.44
2023-04-11T16:21:26.541Z,100872.25
2023-04-11T16:23:55.667Z,100868.28
2023-04-11T16:26:25.775Z,100869.09
2023-04-11T16:29:05.595Z,100867.09
2023-04-11T16:31:46.882Z,100873.88
2023-04-11T16:34:20.785Z,100881.13
2023-04-11T16:36:55.127Z,100885.53
2023-04-11T16:39:45.503Z,100892.31
2023-04-11T16:42:17.238Z,100895.47
2023-04-11T16:44:52.059Z,100897.44
2023-04-11T16:47:23.611Z,100898.63
2023-04-11T16:49:56.332Z,100901.41
2023-04-11T16:52:34.941Z,100892.22
2023-04-11T16:55:03.824Z,100895.47
2023-04-11T16:57:41.738Z,100896.28
2023-04-11T17:00:21.991Z,100899.53
2023-04-11T17:03:06.997Z,100896.28
2023-04-11T17:05:41.372Z,100901.88
2023-04-11T17:08:16.940Z,100889.03
2023-04-11T17:10:47.049Z,100891.84
2023-04-11T17:13:28.132Z,100894.63
2023-04-11T17:16:09.478Z,100899.44
2023-04-11T17:19:18.047Z,100907.84
2023-04-11T17:21:55.472Z,100910.63
2023-04-11T17:24:28.438Z,100921.84
2023-04-11T17:27:27.195Z,100923.81
2023-04-11T17:30:03.128Z,100932.22
2023-04-11T17:32:38.207Z,100930.22
2023-04-11T17:35:34.388Z,100940.63
2023-04-11T17:38:10.479Z,100949.03
2023-04-11T17:40:47.173Z,100949.03
2023-04-11T17:43:20.549Z,100955.44
2023-04-11T17:45:54.911Z,100945.03
2023-04-11T17:48:24.217Z,100955.44
2023-04-11T17:51:10.427Z,100961.84
2023-04-11T17:53:48.476Z,100967.44
2023-04-11T17:56:17.987Z,100964.63
2023-04-11T17:59:11.666Z,100981.09
2023-04-11T18:02:27.399Z,100975.50
2023-04-11T18:08:46.735Z,100987.50
2023-04-11T18:11:20.040Z,100986.69
2023-04-11T18:13:53.962Z,100976.31
2023-04-11T18:16:31.934Z,100980.28
2023-04-11T18:19:39.753Z,100980.28
2023-04-11T18:22:12.433Z,100989.84
2023-04-11T18:24:45.413Z,100978.63
2023-04-11T18:27:16.806Z,100996.28
2023-04-11T18:29:51.832Z,101002.69
2023-04-11T18:32:30.030Z,101004.69
2023-04-11T18:35:23.644Z,101008.28
2023-04-11T18:38:30.329Z,101008.28
2023-04-11T18:41:20.279Z,101011.09
2023-04-11T18:44:17.418Z,101016.22
2023-04-11T18:46:51.353Z,101017.84
2023-04-11T18:49:28.004Z,101027.41
2023-04-11T18:52:06.458Z,101029.03
2023-04-11T18:55:01.181Z,101033.84
2023-04-11T18:57:34.367Z,101032.69
2023-04-11T19:00:19.700Z,101035.47
2023-04-11T19:02:52.706Z,101034.63
2023-04-11T19:05:29.406Z,101034.63
2023-04-11T19:08:00.143Z,101040.25
2023-04-11T19:14:23.622Z,101034.19
2023-04-11T19:16:58.633Z,101033.03
2023-04-11T19:19:31.544Z,101020.19
2023-04-11T19:22:02.443Z,101035.34
2023-04-11T19:24:35.055Z,101028.59
2023-04-11T19:27:08.959Z,101031.41
2023-04-11T19:33:11.418Z,101037.81
2023-04-11T19:35:48.702Z,101035.34
2023-04-11T19:38:22.633Z,101032.53
2023-04-11T19:40:56.980Z,101034.53
2023-04-11T19:43:39.406Z,101033.72
2023-04-11T19:46:08.544Z,101030.13
2023-04-11T19:48:37.884Z,101028.94
2023-04-11T19:55:12.928Z,101038.50
2023-04-11T19:58:28.212Z,101037.69
2023-04-11T20:01:25.438Z,101036.88
2023-04-11T20:18:47.772Z,101040.03
2023-04-11T20:22:29.122Z,101046.81
2023-04-11T20:29:05.922Z,101037.59
2023-04-11T20:31:34.648Z,101036.78
2023-04-11T20:34:06.006Z,101040.78
2023-04-11T20:36:37.732Z,101041.56
2023-04-11T20:39:08.974Z,101042.38
2023-04-11T20:42:09.894Z,101049.59
2023-04-11T20:45:06.994Z,101042.66
2023-04-11T20:47:43.280Z,101041.56
2023-04-11T20:50:24.556Z,101037.97
2023-04-11T20:53:17.171Z,101039.13
2023-04-11T20:55:46.594Z,101044.72
2023-04-11T20:58:26.839Z,101044.72
2023-04-11T21:01:10.261Z,101044.72
2023-04-11T21:04:12.226Z,101043.09
2023-04-11T21:06:44.165Z,101042.28
2023-04-11T21:09:39.307Z,101042.28
2023-04-11T21:12:24.095Z,101047.06
2023-04-11T21:18:56.699Z,101045.44
2023-04-11T21:21:42.360Z,101038.22
2023-04-11T21:24:31.036Z,101035.88
2023-04-11T21:27:04.717Z,101039.84
2023-04-11T21:29:35.144Z,101043.84
2023-04-11T21:32:26.260Z,101038.22
2023-04-11T21:38:08.635Z,101046.63
2023-04-11T21:40:48.279Z,101056.66
2023-04-11T21:43:18.977Z,101067.84
2023-04-11T21:45:53.868Z,101060.63
2023-04-11T21:48:53.063Z,101067.38
2023-04-11T21:51:29.235Z,101064.56
2023-04-11T21:54:02.438Z,101070.16
2023-04-11T21:56:37.459Z,101067.38
2023-04-11T21:59:12.813Z,101064.56
2023-04-11T22:01:47.739Z,101062.94
2023-04-11T22:04:30.204Z,101061.78
2023-04-11T22:07:37.736Z,101057.34
2023-04-11T22:10:23.327Z,101062.94
2023-04-11T22:12:57.251Z,101072.53
2023-04-11T22:15:26.859Z,101061.31
2023-04-11T22:17:58.858Z,101067.75
2023-04-11T22:20:28.063Z,101079.75
2023-04-11T22:22:59.475Z,101074.16
2023-04-11T22:25:36.922Z,101072.53
2023-04-11T22:28:09.550Z,101078.13
2023-04-11T22:30:52.857Z,101082.09
2023-04-11T22:33:22.340Z,101065.31
2023-04-11T22:36:04.579Z,101066.13
2023-04-11T22:38:46.275Z,101065.31
2023-04-11T22:41:28.374Z,101064.50
2023-04-11T22:43:58.220Z,101059.72
2023-04-11T22:46:27.531Z,101065.31
2023-04-11T22:48:58.055Z,101065.31
2023-04-11T22:51:30.164Z,101063.31
2023-04-11T22:53:59.598Z,101064.50
2023-04-11T22:56:30.389Z,101064.50
2023-04-11T22:58:58.902Z,101071.28
